Keene, NY (12942)

07:57 PM EDT on أمتèبر 21, 2014 (GMT -0400)
Keene, New York | Change Station
CLOSE
Current Station
Personal Weather Stations
Location: Keene, NY
Elevation: 1165 ft
Nearby Weather Stations

Elev 1165 ft 44.27 °N, 73.81 °W | Updated 5 seconds ago

غائم
غائم
43.5 °F
Feels Like 44 °F
N
0.0
ريح متغير ريح from ENE
Gusts 0.0 mph

هذا اليوم
High -- | Low -- °F
--% Chance of Precip.
Yesterday
High -- | Low -- °F
Precip. -- في
7:17 AM 6:01 PM
الهلال الأخير, 4% visible
الضغط 30.05 في
وضوح الرؤية 4.0 أميال
سحابات غائم 200 ft
رياح باردة 44 °F
نقطة الندى 43 °F
الرطوبة 99%
Rainfall 0.00 في
عمق الثلج Not available.
الأشعة فوق البنفسجية 0 out of 12
Pollen .10 out of 12
جودة الهواء Not available.
Flu Activity Sporadic
METAR KSLK 212351Z AUTO 04009KT 4SM BR OVC002 06/05 A3001 RMK AO2 SLP175 60005 T00560050 10067 20056 53017

More Conditions Fewer Conditions

الضغط 30.05 في
وضوح الرؤية 4.0 أميال
سحابات غائم 200 ft
رياح باردة 44 °F
نقطة الندى 43 °F
الرطوبة 99%
Rainfall 0.00 في
عمق الثلج Not available.
الأشعة فوق البنفسجية 0 out of 12
Pollen .10 out of 12
جودة الهواء Not available.
Flu Activity Sporadic
METAR KSLK 212351Z AUTO 04009KT 4SM BR OVC002 06/05 A3001 RMK AO2 SLP175 60005 T00560050 10067 20056 53017

More Conditions Fewer Conditions

10-Day Weather Forecast

Almanac

علم الفلك

Oct. 21, 2014 Rise Set
Actual Time 7:17 AM EDT 6:01 PM EDT
Civil Twilight 6:48 AM EDT 6:30 PM EDT
Nautical Twilight 6:14 AM EDT 7:04 PM EDT
Astronomical Twilight 5:40 AM EDT 7:37 PM EDT
قمر 4:54 AM EDT 4:57 PM EDT
Length Of Visible Light 11h 42m
طول الیوم
10h 43m
Tomorrow will be 2m 52s shorter.
الهلال الأخير, 4% of the Moon is Illuminated
هذا اليوم
الهلال الأخير
Oct 23
New
Oct 30
الربع الاول
Nov 6
بدر
Nov 14
الربع الآخر

Today's Extremes

State Highs State Lows

Community

WunderPhotos

Upload Photos

1,763,821 photos uploaded!

Nearby

جودة الهواء

  جودة الهواء AQ Index Pollutant
الثلاثاء جيد
PM2.5
الأربعاء جيد
PM2.5

عمق الثلج

Station Depth Elevation
No new snow has been reported.

Earthquake Activity

City Distance Mag. Time & Date
No recent earthquake activity has been reported nearby.
Minimum magnitude displayed is 2.5.

Coastal Water Temperatures

مكان درجات الحرارة
No Stations Reporting

Nearby Weather Stations